createdAt,value
2023-03-07T00:01:31.006Z,16.20
2023-03-07T00:03:58.219Z,18.40
2023-03-07T00:06:25.409Z,18.53
2023-03-07T00:08:53.063Z,17.73
2023-03-07T00:11:19.803Z,17.97
2023-03-07T00:13:46.276Z,18.67
2023-03-07T00:16:18.337Z,19.97
2023-03-07T00:18:44.804Z,20.83
2023-03-07T00:21:13.627Z,20.17
2023-03-07T00:23:41.656Z,19.63
2023-03-07T00:26:12.781Z,20.37
2023-03-07T00:28:39.294Z,18.73
2023-03-07T00:31:08.300Z,19.93
2023-03-07T00:33:35.064Z,21.40
2023-03-07T00:36:04.313Z,20.37
2023-03-07T00:38:31.688Z,20.57
2023-03-07T00:41:09.137Z,22.03
2023-03-07T00:43:35.961Z,22.93
2023-03-07T00:46:03.148Z,22.83
2023-03-07T00:48:29.960Z,22.13
2023-03-07T00:50:56.731Z,22.53
2023-03-07T00:53:25.027Z,21.30
2023-03-07T00:56:05.621Z,22.20
2023-03-07T00:58:34.409Z,23.43
2023-03-07T01:01:01.631Z,22.17
2023-03-07T01:03:28.522Z,21.63
2023-03-07T01:05:55.705Z,22.87
2023-03-07T01:08:22.585Z,24.27
2023-03-07T01:10:49.070Z,23.93
2023-03-07T01:13:16.961Z,20.87
2023-03-07T01:15:43.412Z,26.13
2023-03-07T01:18:10.743Z,23.70
2023-03-07T01:20:38.506Z,23.73
2023-03-07T01:23:05.466Z,26.90
2023-03-07T01:25:32.100Z,24.57
2023-03-07T01:27:58.528Z,22.23
2023-03-07T01:30:25.658Z,26.53
2023-03-07T01:32:56.449Z,26.03
2023-03-07T01:35:23.543Z,22.37
2023-03-07T01:37:51.112Z,28.30
2023-03-07T01:40:18.347Z,22.53
2023-03-07T01:42:44.947Z,26.20
2023-03-07T01:45:14.271Z,24.50
2023-03-07T01:47:43.461Z,27.57
2023-03-07T01:50:16.801Z,27.03
2023-03-07T01:52:46.293Z,25.70
2023-03-07T01:55:18.901Z,27.03
2023-03-07T01:57:47.274Z,24.60
2023-03-07T02:00:23.400Z,26.43
2023-03-07T02:02:55.703Z,26.87
2023-03-07T02:05:26.439Z,23.17
2023-03-07T02:07:54.065Z,26.43
2023-03-07T02:10:22.086Z,24.20
2023-03-07T02:12:49.075Z,23.80
2023-03-07T02:15:15.587Z,24.00
2023-03-07T02:17:42.857Z,24.10
2023-03-07T02:20:13.020Z,22.90
2023-03-07T02:22:40.830Z,25.77
2023-03-07T02:25:19.365Z,23.60
2023-03-07T02:27:46.013Z,23.70
2023-03-07T02:30:12.666Z,25.83
2023-03-07T02:32:39.168Z,23.53
2023-03-07T02:35:13.229Z,24.93
2023-03-07T02:37:40.066Z,24.93
2023-03-07T02:40:08.454Z,25.03
2023-03-07T02:42:38.060Z,25.03
2023-03-07T02:45:06.779Z,23.60
2023-03-07T02:47:33.200Z,24.37
2023-03-07T02:49:59.701Z,25.50
2023-03-07T02:52:28.551Z,23.13
2023-03-07T02:54:55.582Z,23.30
2023-03-07T02:57:22.267Z,22.23
2023-03-07T02:59:48.664Z,23.40
2023-03-07T03:02:15.110Z,21.20
2023-03-07T03:04:41.685Z,22.73
2023-03-07T03:07:08.157Z,21.80
2023-03-07T03:09:34.579Z,25.13
2023-03-07T03:12:01.010Z,21.90
2023-03-07T03:14:27.455Z,25.00
2023-03-07T03:16:54.416Z,24.50
2023-03-07T03:19:20.824Z,24.40
2023-03-07T03:21:47.899Z,23.10
2023-03-07T03:24:14.369Z,21.90
2023-03-07T03:26:40.775Z,22.47
2023-03-07T03:29:07.196Z,21.13
2023-03-07T03:31:34.905Z,23.87
2023-03-07T03:34:01.389Z,20.87
2023-03-07T03:36:28.290Z,18.23
2023-03-07T03:38:56.287Z,18.63
2023-03-07T03:41:23.330Z,19.60
2023-03-07T03:43:49.828Z,18.57
2023-03-07T03:46:17.590Z,17.53
2023-03-07T03:48:44.447Z,17.40
2023-03-07T03:51:14.569Z,17.97
2023-03-07T03:53:41.103Z,15.57
2023-03-07T03:56:11.713Z,16.40
2023-03-07T03:58:38.527Z,16.17
2023-03-07T04:01:07.638Z,13.30
2023-03-07T04:03:35.465Z,14.97
2023-03-07T04:06:07.777Z,14.97
2023-03-07T04:08:35.046Z,13.40
2023-03-07T04:11:01.534Z,13.33
2023-03-07T04:13:28.025Z,15.13
2023-03-07T04:15:54.588Z,15.33
2023-03-07T04:18:22.605Z,14.40
2023-03-07T04:20:50.403Z,13.17
2023-03-07T04:23:17.883Z,13.33
2023-03-07T04:25:52.477Z,12.37
2023-03-07T04:28:19.240Z,12.57
2023-03-07T04:30:45.822Z,16.50
2023-03-07T04:33:12.843Z,12.37
2023-03-07T04:35:39.807Z,12.50
2023-03-07T04:38:07.091Z,11.00
2023-03-07T04:40:34.269Z,13.60
2023-03-07T04:43:00.998Z,12.20
2023-03-07T04:45:27.570Z,11.77
2023-03-07T04:47:53.996Z,11.80
2023-03-07T04:50:20.592Z,9.50
2023-03-07T04:52:47.023Z,11.17
2023-03-07T04:55:13.416Z,9.77
2023-03-07T04:57:39.861Z,10.27
2023-03-07T05:00:10.081Z,10.17
2023-03-07T05:02:37.439Z,10.37
2023-03-07T05:05:04.283Z,9.63
2023-03-07T05:07:31.128Z,9.07
2023-03-07T05:09:57.576Z,7.83
2023-03-07T05:12:24.908Z,10.47
2023-03-07T05:14:51.320Z,9.30
2023-03-07T05:17:19.216Z,7.83
2023-03-07T05:19:45.635Z,8.67
2023-03-07T05:22:12.084Z,8.47
2023-03-07T05:24:38.489Z,9.20
2023-03-07T05:27:05.098Z,8.03
2023-03-07T05:29:31.528Z,8.93
2023-03-07T05:31:58.863Z,8.10
2023-03-07T05:34:25.314Z,8.77
2023-03-07T05:36:51.711Z,7.93
2023-03-07T05:39:18.136Z,6.77
2023-03-07T05:41:44.543Z,8.27
2023-03-07T05:44:10.973Z,7.57
2023-03-07T05:46:37.429Z,6.83
2023-03-07T05:49:03.870Z,7.30
2023-03-07T05:51:30.284Z,5.73
2023-03-07T05:53:56.702Z,6.70
2023-03-07T05:56:23.121Z,7.40
2023-03-07T05:58:49.550Z,6.90
2023-03-07T06:01:15.948Z,7.57
2023-03-07T06:03:44.026Z,7.80
2023-03-07T06:06:12.206Z,6.53
2023-03-07T06:08:38.767Z,7.93
2023-03-07T06:11:05.319Z,7.87
2023-03-07T06:13:31.752Z,7.43
2023-03-07T06:15:58.245Z,6.17
2023-03-07T06:18:25.659Z,7.03
2023-03-07T06:21:13.488Z,7.83
2023-03-07T06:23:39.954Z,8.00
2023-03-07T06:26:08.054Z,6.43
2023-03-07T06:28:35.251Z,7.13
2023-03-07T06:31:01.784Z,6.70
2023-03-07T06:33:28.222Z,7.03
2023-03-07T06:35:54.797Z,8.27
2023-03-07T06:38:21.251Z,7.17
2023-03-07T06:40:55.475Z,7.50
2023-03-07T06:43:22.251Z,7.60
2023-03-07T06:45:48.763Z,7.53
2023-03-07T06:48:15.206Z,8.07
2023-03-07T06:50:41.606Z,7.37
2023-03-07T06:53:08.008Z,7.60
2023-03-07T06:55:34.483Z,7.47
2023-03-07T06:58:00.923Z,7.13
2023-03-07T07:00:27.433Z,7.33
2023-03-07T07:02:54.171Z,8.60
2023-03-07T07:05:20.750Z,8.17
2023-03-07T07:07:47.184Z,8.43
2023-03-07T07:10:13.617Z,9.40
2023-03-07T07:12:40.129Z,9.70
2023-03-07T07:15:07.322Z,9.47
2023-03-07T07:17:35.681Z,7.57
2023-03-07T07:20:05.284Z,7.00
2023-03-07T07:22:32.286Z,7.80
2023-03-07T07:24:58.729Z,7.80
2023-03-07T07:27:25.869Z,6.83
2023-03-07T07:29:52.300Z,9.07
2023-03-07T07:32:18.816Z,6.53
2023-03-07T07:34:45.344Z,5.17
2023-03-07T07:37:11.754Z,5.63
2023-03-07T07:39:40.734Z,5.97
2023-03-07T07:42:07.144Z,6.77
2023-03-07T07:44:33.584Z,5.83
2023-03-07T07:47:01.013Z,6.17
2023-03-07T07:49:27.497Z,5.73
2023-03-07T07:51:53.945Z,5.90
2023-03-07T07:54:20.362Z,4.80
2023-03-07T07:56:46.788Z,5.03
2023-03-07T07:59:13.305Z,4.67
2023-03-07T08:01:39.816Z,5.63
2023-03-07T08:04:06.277Z,7.40
2023-03-07T08:06:32.690Z,6.37
2023-03-07T08:09:00.149Z,5.80
2023-03-07T08:11:27.030Z,7.40
2023-03-07T08:13:53.484Z,6.53
2023-03-07T08:16:21.773Z,6.27
2023-03-07T08:18:50.320Z,5.60
2023-03-07T08:21:17.016Z,7.37
2023-03-07T08:23:43.491Z,5.87
2023-03-07T08:26:10.418Z,7.10
2023-03-07T08:28:37.550Z,5.30
2023-03-07T08:31:34.457Z,6.57
2023-03-07T08:34:01.980Z,5.30
2023-03-07T08:36:28.390Z,5.90
2023-03-07T08:38:54.821Z,5.33
2023-03-07T08:41:22.250Z,5.63
2023-03-07T08:43:48.837Z,6.37
2023-03-07T08:46:15.412Z,6.20
2023-03-07T08:48:41.855Z,5.97
2023-03-07T08:51:10.583Z,4.67
2023-03-07T08:53:37.429Z,4.13
2023-03-07T08:56:12.317Z,6.30
2023-03-07T08:58:38.991Z,4.30
2023-03-07T09:01:06.991Z,4.40
2023-03-07T09:03:34.190Z,3.63
2023-03-07T09:06:01.524Z,4.17
2023-03-07T09:08:27.923Z,2.90
2023-03-07T09:10:54.459Z,3.70
2023-03-07T09:13:20.898Z,3.20
2023-03-07T09:15:47.605Z,5.63
2023-03-07T09:18:14.032Z,3.40
2023-03-07T09:20:40.709Z,3.40
2023-03-07T09:23:08.130Z,4.10
2023-03-07T09:25:34.628Z,3.77
2023-03-07T09:28:01.044Z,3.50
2023-03-07T09:30:28.831Z,4.23
2023-03-07T09:32:55.818Z,2.93
2023-03-07T09:35:22.504Z,2.80
2023-03-07T09:37:49.026Z,3.50
2023-03-07T09:40:20.243Z,2.97
2023-03-07T09:42:55.740Z,2.93
2023-03-07T09:45:37.151Z,2.63
2023-03-07T09:48:20.929Z,2.27
2023-03-07T09:51:22.764Z,2.30
2023-03-07T09:53:58.094Z,2.20
2023-03-07T09:56:29.527Z,2.03
2023-03-07T09:59:22.075Z,2.67
2023-03-07T10:01:51.766Z,2.80
2023-03-07T10:04:23.097Z,2.57
2023-03-07T10:06:55.246Z,1.80
2023-03-07T10:09:23.536Z,3.13
2023-03-07T10:11:56.042Z,1.70
2023-03-07T10:14:31.569Z,1.40
2023-03-07T10:17:18.166Z,1.70
2023-03-07T10:19:49.056Z,1.63
2023-03-07T10:22:25.258Z,1.90
2023-03-07T10:25:00.914Z,3.13
2023-03-07T10:27:29.128Z,1.77
2023-03-07T10:29:58.506Z,2.37
2023-03-07T10:32:35.129Z,2.00
2023-03-07T10:35:20.845Z,9.60
2023-03-07T10:37:59.066Z,2.30
2023-03-07T10:40:34.840Z,6.47
2023-03-07T10:43:01.298Z,6.13
2023-03-07T10:45:30.724Z,8.27
2023-03-07T10:48:06.364Z,5.43
2023-03-07T10:50:43.832Z,3.30
2023-03-07T10:53:22.557Z,3.10
2023-03-07T10:55:48.967Z,2.83
2023-03-07T10:58:21.038Z,2.00
2023-03-07T11:01:18.463Z,1.20
2023-03-07T11:03:53.624Z,2.53
2023-03-07T11:06:51.448Z,2.10
2023-03-07T11:09:26.362Z,3.90
2023-03-07T11:11:58.487Z,2.43
2023-03-07T11:14:26.567Z,2.37
2023-03-07T11:16:59.950Z,1.07
2023-03-07T11:19:38.423Z,3.73
2023-03-07T11:22:17.683Z,0.87
2023-03-07T11:24:51.773Z,2.37
2023-03-07T11:27:26.808Z,4.07
2023-03-07T11:30:17.401Z,0.90
2023-03-07T11:33:03.252Z,2.17
2023-03-07T11:35:41.688Z,1.53
2023-03-07T11:38:19.928Z,1.63
2023-03-07T11:41:01.743Z,3.10
2023-03-07T11:43:44.950Z,1.73
2023-03-07T11:46:35.907Z,2.50
2023-03-07T11:49:20.708Z,1.83
2023-03-07T11:52:04.347Z,2.10
2023-03-07T11:54:42.747Z,3.27
2023-03-07T11:57:18.104Z,2.60
2023-03-07T11:59:56.147Z,2.00
2023-03-07T12:02:29.695Z,1.43
2023-03-07T12:05:37.033Z,2.07
2023-03-07T12:08:26.268Z,0.97
2023-03-07T12:11:23.702Z,1.80
2023-03-07T12:14:05.094Z,0.70
2023-03-07T12:16:55.769Z,2.10
2023-03-07T12:19:47.834Z,1.00
2023-03-07T12:22:28.439Z,1.70
2023-03-07T12:25:17.565Z,4.63
2023-03-07T12:27:57.740Z,1.00
2023-03-07T12:30:35.574Z,1.07
2023-03-07T12:33:02.902Z,1.00
2023-03-07T12:35:42.322Z,1.27
2023-03-07T12:38:23.316Z,1.63
2023-03-07T12:40:56.372Z,1.40
2023-03-07T12:43:39.599Z,1.57
2023-03-07T12:46:45.876Z,2.37
2023-03-07T12:49:22.089Z,1.77
2023-03-07T12:51:59.191Z,1.77
2023-03-07T12:54:37.371Z,1.80
2023-03-07T12:57:11.732Z,1.50
2023-03-07T12:59:40.837Z,1.60
2023-03-07T13:02:13.793Z,1.30
2023-03-07T13:04:42.664Z,1.27
2023-03-07T13:07:13.231Z,2.37
2023-03-07T13:09:42.067Z,1.53
2023-03-07T13:12:22.421Z,2.20
2023-03-07T13:14:53.093Z,2.70
2023-03-07T13:17:45.681Z,3.43
2023-03-07T13:20:14.944Z,3.97
2023-03-07T13:22:41.228Z,1.50
2023-03-07T13:25:19.588Z,3.63
2023-03-07T13:27:54.241Z,2.70
2023-03-07T13:30:28.925Z,2.37
2023-03-07T13:33:21.639Z,0.70
2023-03-07T13:35:57.001Z,1.00
2023-03-07T13:38:23.332Z,1.10
2023-03-07T13:40:58.856Z,1.07
2023-03-07T13:43:27.878Z,1.07
2023-03-07T13:46:20.005Z,1.40
2023-03-07T13:48:49.363Z,2.30
2023-03-07T13:51:15.960Z,1.60
2023-03-07T13:54:03.872Z,2.17
2023-03-07T13:56:42.464Z,2.97
2023-03-07T13:59:22.452Z,1.47
2023-03-07T14:01:57.834Z,0.77
2023-03-07T14:04:40.912Z,1.40
2023-03-07T14:07:24.963Z,0.50
2023-03-07T14:09:54.917Z,1.73
2023-03-07T14:12:44.566Z,0.70
2023-03-07T14:15:34.494Z,1.17
2023-03-07T14:18:29.469Z,0.60
2023-03-07T14:21:12.492Z,0.60
2023-03-07T14:23:52.872Z,0.60
2023-03-07T14:26:36.857Z,0.50
2023-03-07T14:29:20.532Z,1.57
2023-03-07T14:31:47.485Z,0.90
2023-03-07T14:34:33.658Z,0.93
2023-03-07T14:37:21.495Z,2.00
2023-03-07T14:40:00.025Z,1.00
2023-03-07T14:42:56.853Z,0.80
2023-03-07T14:45:40.693Z,1.00
2023-03-07T14:48:23.814Z,1.40
2023-03-07T14:50:50.648Z,1.87
2023-03-07T14:53:21.322Z,1.73
2023-03-07T14:55:49.289Z,2.17
2023-03-07T14:58:43.489Z,2.17
2023-03-07T15:01:15.972Z,3.20
2023-03-07T15:03:49.693Z,2.60
2023-03-07T15:06:18.924Z,4.03
2023-03-07T15:08:46.595Z,2.43
2023-03-07T15:11:29.786Z,3.27
2023-03-07T15:14:20.929Z,2.30
2023-03-07T15:16:50.705Z,2.20
2023-03-07T15:19:21.662Z,2.10
2023-03-07T15:21:54.344Z,1.10
2023-03-07T15:24:26.441Z,0.70
2023-03-07T15:26:55.360Z,0.93
2023-03-07T15:29:23.816Z,1.77
2023-03-07T15:32:08.316Z,0.70
2023-03-07T15:34:37.598Z,1.23
2023-03-07T15:37:23.001Z,2.10
2023-03-07T15:40:02.714Z,0.90
2023-03-07T15:42:30.012Z,1.37
2023-03-07T15:44:58.058Z,1.43
2023-03-07T15:47:25.211Z,0.77
2023-03-07T15:49:54.587Z,0.97
2023-03-07T15:52:37.004Z,1.13
2023-03-07T15:55:16.788Z,2.27
2023-03-07T15:58:01.380Z,2.30
2023-03-07T16:00:33.084Z,2.10
2023-03-07T16:03:28.589Z,1.43
2023-03-07T16:05:56.523Z,1.83
2023-03-07T16:08:23.406Z,1.00
2023-03-07T16:10:52.915Z,2.53
2023-03-07T16:13:22.215Z,6.97
2023-03-07T16:16:15.047Z,2.23
2023-03-07T16:18:42.374Z,4.00
2023-03-07T16:21:14.857Z,3.00
2023-03-07T16:23:41.462Z,1.73
2023-03-07T16:26:13.289Z,3.53
2023-03-07T16:28:39.823Z,1.60
2023-03-07T16:31:14.483Z,4.10
2023-03-07T16:33:40.991Z,1.43
2023-03-07T16:36:09.314Z,4.33
2023-03-07T16:38:35.755Z,2.10
2023-03-07T16:41:04.392Z,4.00
2023-03-07T16:43:36.625Z,1.47
2023-03-07T16:46:06.420Z,1.83
2023-03-07T16:48:33.189Z,3.10
2023-03-07T16:50:59.614Z,2.60
2023-03-07T16:53:26.648Z,1.70
2023-03-07T16:55:55.017Z,1.20
2023-03-07T16:58:27.928Z,1.13
2023-03-07T17:00:54.464Z,1.17
2023-03-07T17:03:20.904Z,1.90
2023-03-07T17:05:47.638Z,1.10
2023-03-07T17:08:14.065Z,3.90
2023-03-07T17:10:42.099Z,1.30
2023-03-07T17:13:14.688Z,2.93
2023-03-07T17:15:41.246Z,1.30
2023-03-07T17:18:07.727Z,3.07
2023-03-07T17:20:34.129Z,1.37
2023-03-07T17:23:00.550Z,2.00
2023-03-07T17:25:28.040Z,1.90
2023-03-07T17:28:06.933Z,1.30
2023-03-07T17:30:33.408Z,3.23
2023-03-07T17:33:00.930Z,1.10
2023-03-07T17:35:28.313Z,3.30
2023-03-07T17:37:54.748Z,1.33
2023-03-07T17:40:21.788Z,1.53
2023-03-07T17:42:50.488Z,0.60
2023-03-07T17:45:17.245Z,1.20
2023-03-07T17:47:43.660Z,2.13
2023-03-07T17:50:10.947Z,0.77
2023-03-07T17:52:37.412Z,0.97
2023-03-07T17:55:03.955Z,2.00
2023-03-07T17:57:30.418Z,1.90
2023-03-07T17:59:56.895Z,3.23
2023-03-07T18:02:23.455Z,1.07
2023-03-07T18:04:51.522Z,0.67
2023-03-07T18:07:19.684Z,1.73
2023-03-07T18:09:48.475Z,1.53
2023-03-07T18:12:17.958Z,1.27
2023-03-07T18:14:44.367Z,2.47
2023-03-07T18:17:11.116Z,1.93
2023-03-07T18:19:38.439Z,2.23
2023-03-07T18:22:04.955Z,5.07
2023-03-07T18:24:31.490Z,3.23
2023-03-07T18:27:03.284Z,2.03
2023-03-07T18:29:29.808Z,3.70
2023-03-07T18:31:56.552Z,2.80
2023-03-07T18:34:24.647Z,3.47
2023-03-07T18:36:53.000Z,2.70
2023-03-07T18:39:20.615Z,3.77
2023-03-07T18:41:48.481Z,3.70
2023-03-07T18:44:18.216Z,1.57
2023-03-07T18:46:44.710Z,2.13
2023-03-07T18:49:11.122Z,2.50
2023-03-07T18:51:39.408Z,2.83
2023-03-07T18:54:08.931Z,4.40
2023-03-07T18:56:35.425Z,4.40
2023-03-07T18:59:01.980Z,3.90
2023-03-07T19:01:35.725Z,5.30
2023-03-07T19:04:04.290Z,5.37
2023-03-07T19:06:33.762Z,2.17
2023-03-07T19:09:00.601Z,3.97
2023-03-07T19:11:27.060Z,4.07
2023-03-07T19:13:53.516Z,7.37
2023-03-07T19:16:26.525Z,1.73
2023-03-07T19:18:53.657Z,2.97
2023-03-07T19:21:25.083Z,4.23
2023-03-07T19:23:52.318Z,4.10
2023-03-07T19:26:20.381Z,4.47
2023-03-07T19:28:48.237Z,2.43
2023-03-07T19:31:20.091Z,2.70
2023-03-07T19:33:47.452Z,2.40
2023-03-07T19:36:22.337Z,3.20
2023-03-07T19:38:50.234Z,2.67
2023-03-07T19:41:18.909Z,3.73
2023-03-07T19:43:45.753Z,2.40
2023-03-07T19:46:13.491Z,2.23
2023-03-07T19:48:40.902Z,2.53
2023-03-07T19:51:18.457Z,7.13
2023-03-07T19:53:45.600Z,1.63
2023-03-07T19:56:20.636Z,6.07
2023-03-07T19:58:47.292Z,3.73
2023-03-07T20:01:16.459Z,5.57
2023-03-07T20:03:43.105Z,2.03
2023-03-07T20:06:14.770Z,5.03
2023-03-07T20:08:41.333Z,3.73
2023-03-07T20:11:16.310Z,2.53
2023-03-07T20:13:43.785Z,3.27
2023-03-07T20:16:10.664Z,3.00
2023-03-07T20:18:37.318Z,5.70
2023-03-07T20:21:09.529Z,2.07
2023-03-07T20:23:36.315Z,3.07
2023-03-07T20:26:17.534Z,4.27
2023-03-07T20:28:44.290Z,3.87
2023-03-07T20:31:11.419Z,7.63
2023-03-07T20:33:39.578Z,5.07
2023-03-07T20:36:08.414Z,3.07
2023-03-07T20:38:36.540Z,3.17
2023-03-07T20:41:05.173Z,4.87
2023-03-07T20:43:32.278Z,4.43
2023-03-07T20:46:03.475Z,3.03
2023-03-07T20:48:30.019Z,4.33
2023-03-07T20:50:57.164Z,3.33
2023-03-07T20:53:23.598Z,3.53
2023-03-07T20:55:50.036Z,3.77
2023-03-07T20:58:16.433Z,5.20
2023-03-07T21:00:42.871Z,5.90
2023-03-07T21:03:13.370Z,6.33
2023-03-07T21:05:39.899Z,7.03
2023-03-07T21:08:06.374Z,8.63
2023-03-07T21:10:32.795Z,6.87
2023-03-07T21:12:59.207Z,7.70
2023-03-07T21:15:26.064Z,5.83
2023-03-07T21:17:52.806Z,7.67
2023-03-07T21:20:19.277Z,8.57
2023-03-07T21:22:46.584Z,8.03
2023-03-07T21:25:13.022Z,8.67
2023-03-07T21:27:39.420Z,6.47
2023-03-07T21:30:06.539Z,7.57
2023-03-07T21:32:32.931Z,7.30
2023-03-07T21:34:59.332Z,5.93
2023-03-07T21:37:25.814Z,7.07
2023-03-07T21:39:52.559Z,5.10
2023-03-07T21:42:18.949Z,6.23
2023-03-07T21:44:45.400Z,6.20
2023-03-07T21:47:12.986Z,4.13
2023-03-07T21:49:39.462Z,6.30
2023-03-07T21:52:05.901Z,3.03
2023-03-07T21:54:32.371Z,4.70
2023-03-07T21:56:58.843Z,6.27
2023-03-07T21:59:28.106Z,4.77
2023-03-07T22:01:54.870Z,1.63
2023-03-07T22:04:21.359Z,1.40
2023-03-07T22:06:48.484Z,2.60
2023-03-07T22:09:14.930Z,3.33
2023-03-07T22:11:41.351Z,1.10
2023-03-07T22:14:07.753Z,1.37
2023-03-07T22:16:34.276Z,3.97
2023-03-07T22:19:00.694Z,1.80
2023-03-07T22:21:27.675Z,3.03
2023-03-07T22:24:00.622Z,3.10
2023-03-07T22:26:28.197Z,2.43
2023-03-07T22:28:54.666Z,2.10
2023-03-07T22:31:21.143Z,3.47
2023-03-07T22:33:47.577Z,3.13
2023-03-07T22:36:14.351Z,3.40
2023-03-07T22:38:42.625Z,2.30
2023-03-07T22:41:14.594Z,2.50
2023-03-07T22:43:41.415Z,2.07
2023-03-07T22:46:08.616Z,2.73
2023-03-07T22:48:35.518Z,3.20
2023-03-07T22:51:02.348Z,2.60
2023-03-07T22:53:30.926Z,1.90
2023-03-07T22:56:01.465Z,2.50
2023-03-07T22:58:28.675Z,4.53
2023-03-07T23:00:55.672Z,2.83
2023-03-07T23:03:23.287Z,2.60
2023-03-07T23:05:49.909Z,9.80
2023-03-07T23:08:16.503Z,3.50
2023-03-07T23:10:42.904Z,2.57
2023-03-07T23:13:09.316Z,1.87
2023-03-07T23:15:39.488Z,1.43
2023-03-07T23:18:05.981Z,3.90
2023-03-07T23:20:32.426Z,2.23
2023-03-07T23:22:58.830Z,4.53
2023-03-07T23:25:25.243Z,2.77
2023-03-07T23:27:51.635Z,4.50
2023-03-07T23:30:18.093Z,2.37
2023-03-07T23:32:44.669Z,1.97
2023-03-07T23:35:11.578Z,1.33
2023-03-07T23:37:38.054Z,4.20
2023-03-07T23:40:05.092Z,1.67
2023-03-07T23:42:31.762Z,1.87
2023-03-07T23:44:58.172Z,0.93
2023-03-07T23:47:24.624Z,1.67
2023-03-07T23:49:51.020Z,2.57
2023-03-07T23:52:17.870Z,3.80
2023-03-07T23:54:45.200Z,2.53
2023-03-07T23:57:11.621Z,3.13
2023-03-07T23:59:38.010Z,2.23
